createdAt,value
2023-03-31T00:00:32.371Z,1.27
2023-03-31T00:02:59.029Z,1.65
2023-03-31T00:05:26.099Z,1.50
2023-03-31T00:07:54.417Z,1.02
2023-03-31T00:10:20.925Z,1.15
2023-03-31T00:12:47.410Z,1.60
2023-03-31T00:15:15.250Z,1.42
2023-03-31T00:17:41.970Z,1.58
2023-03-31T00:20:09.399Z,2.00
2023-03-31T00:22:35.932Z,1.52
2023-03-31T00:25:02.422Z,1.10
2023-03-31T00:27:28.917Z,1.00
2023-03-31T00:29:55.402Z,0.80
2023-03-31T00:32:23.381Z,1.00
2023-03-31T00:34:49.886Z,1.10
2023-03-31T00:37:16.426Z,0.95
2023-03-31T00:39:43.030Z,1.20
2023-03-31T00:42:11.311Z,1.48
2023-03-31T00:44:59.629Z,1.48
2023-03-31T00:47:29.222Z,0.80
2023-03-31T00:49:57.608Z,0.80
2023-03-31T00:52:28.304Z,1.27
2023-03-31T00:55:00.117Z,1.40
2023-03-31T00:57:28.927Z,1.10
2023-03-31T01:00:01.898Z,1.95
2023-03-31T01:02:29.839Z,1.15
2023-03-31T01:04:59.213Z,0.90
2023-03-31T01:07:30.869Z,0.90
2023-03-31T01:09:59.812Z,1.00
2023-03-31T01:12:27.280Z,1.30
2023-03-31T01:14:55.238Z,1.15
2023-03-31T01:17:22.693Z,1.00
2023-03-31T01:20:03.186Z,1.15
2023-03-31T01:22:56.510Z,1.38
2023-03-31T01:26:00.492Z,1.27
2023-03-31T01:28:37.094Z,1.27
2023-03-31T01:31:46.921Z,1.83
2023-03-31T01:34:43.207Z,1.27
2023-03-31T01:37:41.022Z,1.50
2023-03-31T01:40:34.023Z,2.00
2023-03-31T01:43:09.215Z,1.35
2023-03-31T01:45:45.525Z,1.52
2023-03-31T01:48:14.875Z,2.00
2023-03-31T01:50:46.684Z,1.52
2023-03-31T01:53:18.209Z,1.20
2023-03-31T01:55:50.614Z,1.92
2023-03-31T01:58:21.447Z,1.70
2023-03-31T02:00:51.717Z,2.22
2023-03-31T02:03:24.232Z,2.00
2023-03-31T02:05:54.873Z,2.05
2023-03-31T02:08:24.986Z,2.20
2023-03-31T02:10:53.875Z,1.67
2023-03-31T02:13:23.218Z,2.03
2023-03-31T02:15:53.151Z,2.15
2023-03-31T02:18:23.161Z,1.65
2023-03-31T02:20:51.364Z,1.95
2023-03-31T02:23:22.068Z,2.75
2023-03-31T02:25:51.567Z,3.25
2023-03-31T02:28:23.324Z,2.55
2023-03-31T02:31:00.827Z,2.30
2023-03-31T02:33:27.976Z,2.03
2023-03-31T02:35:54.557Z,1.70
2023-03-31T02:38:21.301Z,2.42
2023-03-31T02:40:47.821Z,1.77
2023-03-31T02:43:14.553Z,2.08
2023-03-31T02:45:45.098Z,1.70
2023-03-31T02:48:17.436Z,1.95
2023-03-31T02:51:08.560Z,1.77
2023-03-31T02:53:48.266Z,1.50
2023-03-31T02:56:34.911Z,1.60
2023-03-31T02:59:13.705Z,2.03
2023-03-31T03:01:52.512Z,1.45
2023-03-31T03:04:36.102Z,1.23
2023-03-31T03:07:08.301Z,1.95
2023-03-31T03:09:45.893Z,1.67
2023-03-31T03:12:17.883Z,1.90
2023-03-31T03:14:48.485Z,1.60
2023-03-31T03:17:22.490Z,1.83
2023-03-31T03:19:53.310Z,1.92
2023-03-31T03:22:20.121Z,3.63
2023-03-31T03:24:47.401Z,1.75
2023-03-31T03:27:14.083Z,1.45
2023-03-31T03:29:40.587Z,1.77
2023-03-31T03:32:07.139Z,1.40
2023-03-31T03:34:34.956Z,1.27
2023-03-31T03:37:01.489Z,1.33
2023-03-31T03:39:27.954Z,1.50
2023-03-31T03:41:54.513Z,1.42
2023-03-31T03:44:20.965Z,1.42
2023-03-31T03:46:47.661Z,1.20
2023-03-31T03:49:14.288Z,1.15
2023-03-31T03:51:42.105Z,1.27
2023-03-31T03:54:08.616Z,2.03
2023-03-31T03:56:35.108Z,1.20
2023-03-31T03:59:01.574Z,1.60
2023-03-31T04:01:28.079Z,1.08
2023-03-31T04:03:54.677Z,1.30
2023-03-31T04:06:21.254Z,1.10
2023-03-31T04:08:49.093Z,1.17
2023-03-31T04:11:19.106Z,1.58
2023-03-31T04:13:46.888Z,1.27
2023-03-31T04:16:14.199Z,1.20
2023-03-31T04:18:40.819Z,1.65
2023-03-31T04:21:07.324Z,1.60
2023-03-31T04:23:35.641Z,0.90
2023-03-31T04:26:04.423Z,0.88
2023-03-31T04:28:31.195Z,1.45
2023-03-31T04:30:57.789Z,1.45
2023-03-31T04:33:24.264Z,1.25
2023-03-31T04:35:50.873Z,1.45
2023-03-31T04:38:18.547Z,0.90
2023-03-31T04:40:46.545Z,0.80
2023-03-31T04:43:14.990Z,1.08
2023-03-31T04:45:41.670Z,1.67
2023-03-31T04:48:08.702Z,1.00
2023-03-31T04:50:35.505Z,0.95
2023-03-31T04:53:02.084Z,1.05
2023-03-31T04:55:28.857Z,1.15
2023-03-31T04:57:55.348Z,1.33
2023-03-31T05:00:23.876Z,0.80
2023-03-31T05:02:50.645Z,0.90
2023-03-31T05:05:17.440Z,0.90
2023-03-31T05:07:44.256Z,0.90
2023-03-31T05:10:11.149Z,0.90
2023-03-31T05:12:38.291Z,0.65
2023-03-31T05:15:06.694Z,0.80
2023-03-31T05:17:35.970Z,1.00
2023-03-31T05:20:02.723Z,0.70
2023-03-31T05:22:29.211Z,0.90
2023-03-31T05:24:55.900Z,1.02
2023-03-31T05:27:22.391Z,1.10
2023-03-31T05:29:48.846Z,0.80
2023-03-31T05:32:15.319Z,1.23
2023-03-31T05:34:43.109Z,1.90
2023-03-31T05:37:09.696Z,0.90
2023-03-31T05:39:36.181Z,1.52
2023-03-31T05:42:02.723Z,1.15
2023-03-31T05:44:29.227Z,0.98
2023-03-31T05:46:55.732Z,1.10
2023-03-31T05:49:22.305Z,1.30
2023-03-31T05:51:50.167Z,1.55
2023-03-31T05:54:16.636Z,1.02
2023-03-31T05:56:43.188Z,2.33
2023-03-31T05:59:09.750Z,1.60
2023-03-31T06:01:36.341Z,0.93
2023-03-31T06:04:02.970Z,1.75
2023-03-31T06:06:29.532Z,1.27
2023-03-31T06:08:57.770Z,1.10
2023-03-31T06:11:24.345Z,1.48
2023-03-31T06:13:50.854Z,1.98
2023-03-31T06:16:18.081Z,1.38
2023-03-31T06:18:45.424Z,1.10
2023-03-31T06:21:14.086Z,1.23
2023-03-31T06:23:40.896Z,1.15
2023-03-31T06:26:08.817Z,1.60
2023-03-31T06:28:36.274Z,1.70
2023-03-31T06:31:04.160Z,1.25
2023-03-31T06:33:31.521Z,1.33
2023-03-31T06:35:58.077Z,1.25
2023-03-31T06:38:24.590Z,1.58
2023-03-31T06:40:51.117Z,1.30
2023-03-31T06:43:19.000Z,1.23
2023-03-31T06:45:45.520Z,1.17
2023-03-31T06:48:12.134Z,2.45
2023-03-31T06:50:39.252Z,1.85
2023-03-31T06:53:05.851Z,1.05
2023-03-31T06:55:32.407Z,1.85
2023-03-31T06:57:58.898Z,1.40
2023-03-31T07:00:26.984Z,1.20
2023-03-31T07:02:53.661Z,1.50
2023-03-31T07:05:20.252Z,1.15
2023-03-31T07:07:46.938Z,1.25
2023-03-31T07:10:13.406Z,2.08
2023-03-31T07:12:39.953Z,1.77
2023-03-31T07:15:07.810Z,1.10
2023-03-31T07:17:35.738Z,1.52
2023-03-31T07:20:02.339Z,1.23
2023-03-31T07:22:28.837Z,1.25
2023-03-31T07:24:55.349Z,1.27
2023-03-31T07:27:24.204Z,1.65
2023-03-31T07:29:52.113Z,1.27
2023-03-31T07:32:18.650Z,1.45
2023-03-31T07:34:46.471Z,1.58
2023-03-31T07:37:12.937Z,1.58
2023-03-31T07:39:39.408Z,1.20
2023-03-31T07:42:05.978Z,1.40
2023-03-31T07:44:33.086Z,1.98
2023-03-31T07:46:59.610Z,1.98
2023-03-31T07:49:26.128Z,1.58
2023-03-31T07:51:53.931Z,1.63
2023-03-31T07:54:20.401Z,1.70
2023-03-31T07:56:47.127Z,1.50
2023-03-31T07:59:13.770Z,1.80
2023-03-31T08:01:40.415Z,2.30
2023-03-31T08:04:07.279Z,1.85
2023-03-31T08:06:33.831Z,1.45
2023-03-31T08:09:01.865Z,1.48
2023-03-31T08:11:28.363Z,2.05
2023-03-31T08:13:54.836Z,1.80
2023-03-31T08:16:21.345Z,2.10
2023-03-31T08:18:47.915Z,1.40
2023-03-31T08:21:14.396Z,2.05
2023-03-31T08:23:40.883Z,2.33
2023-03-31T08:26:11.140Z,1.73
2023-03-31T08:28:37.727Z,1.95
2023-03-31T08:31:05.450Z,1.92
2023-03-31T08:33:32.022Z,2.10
2023-03-31T08:36:02.469Z,1.67
2023-03-31T08:38:28.988Z,1.95
2023-03-31T08:40:59.626Z,2.45
2023-03-31T08:43:32.017Z,1.95
2023-03-31T08:45:59.600Z,2.70
2023-03-31T08:48:29.428Z,2.78
2023-03-31T08:51:00.130Z,2.53
2023-03-31T08:53:29.661Z,1.73
2023-03-31T08:55:57.898Z,2.40
2023-03-31T08:58:35.515Z,2.55
2023-03-31T09:01:08.889Z,2.35
2023-03-31T09:03:43.569Z,2.40
2023-03-31T09:06:14.817Z,2.40
2023-03-31T09:08:42.181Z,2.45
2023-03-31T09:11:14.837Z,1.70
2023-03-31T09:14:02.005Z,2.57
2023-03-31T09:16:33.534Z,2.13
2023-03-31T09:19:01.987Z,1.70
2023-03-31T09:21:32.459Z,2.08
2023-03-31T09:24:05.188Z,2.22
2023-03-31T09:26:37.825Z,3.00
2023-03-31T09:29:13.651Z,3.08
2023-03-31T09:31:43.259Z,2.25
2023-03-31T09:34:16.357Z,2.08
2023-03-31T09:36:43.266Z,2.42
2023-03-31T09:39:13.238Z,2.72
2023-03-31T09:41:44.336Z,3.00
2023-03-31T09:44:22.513Z,2.78
2023-03-31T09:46:50.195Z,2.85
2023-03-31T09:49:20.085Z,3.58
2023-03-31T09:51:52.514Z,3.22
2023-03-31T09:54:24.420Z,1.95
2023-03-31T09:56:52.530Z,2.05
2023-03-31T09:59:22.142Z,2.80
2023-03-31T10:01:51.858Z,2.17
2023-03-31T10:04:23.312Z,2.28
2023-03-31T10:06:50.851Z,3.05
2023-03-31T10:09:17.390Z,1.85
2023-03-31T10:11:54.530Z,2.78
2023-03-31T10:14:32.469Z,1.92
2023-03-31T10:17:04.126Z,1.90
2023-03-31T10:19:33.454Z,1.80
2023-03-31T10:22:02.035Z,1.38
2023-03-31T10:24:37.866Z,1.33
2023-03-31T10:27:07.017Z,1.92
2023-03-31T10:29:35.133Z,1.38
2023-03-31T10:32:09.170Z,1.38
2023-03-31T10:34:42.034Z,1.58
2023-03-31T10:37:14.524Z,1.40
2023-03-31T10:39:43.156Z,1.80
2023-03-31T10:42:10.067Z,1.33
2023-03-31T10:44:39.170Z,1.60
2023-03-31T10:47:19.480Z,1.70
2023-03-31T10:49:49.410Z,1.70
2023-03-31T10:52:19.096Z,1.60
2023-03-31T10:54:47.779Z,1.52
2023-03-31T10:57:15.758Z,1.83
2023-03-31T10:59:57.948Z,2.05
2023-03-31T11:03:12.420Z,1.48
2023-03-31T11:05:46.298Z,2.00
2023-03-31T11:08:30.176Z,2.25
2023-03-31T11:11:14.498Z,2.13
2023-03-31T11:13:48.187Z,1.60
2023-03-31T11:16:25.620Z,2.25
2023-03-31T11:19:04.110Z,3.15
2023-03-31T11:21:41.240Z,2.08
2023-03-31T11:24:20.133Z,2.03
2023-03-31T11:26:57.566Z,3.13
2023-03-31T11:29:33.879Z,2.33
2023-03-31T11:32:18.013Z,1.73
2023-03-31T11:34:59.209Z,2.00
2023-03-31T11:37:36.371Z,2.42
2023-03-31T11:40:29.443Z,1.65
2023-03-31T11:42:59.268Z,1.98
2023-03-31T11:45:29.024Z,2.22
2023-03-31T11:48:01.836Z,2.28
2023-03-31T11:50:31.869Z,2.15
2023-03-31T11:53:02.277Z,2.15
2023-03-31T11:55:30.622Z,2.20
2023-03-31T11:58:03.101Z,1.52
2023-03-31T12:00:31.997Z,2.38
2023-03-31T12:03:09.574Z,1.80
2023-03-31T12:05:40.601Z,2.33
2023-03-31T12:08:11.988Z,1.98
2023-03-31T12:10:43.688Z,2.00
2023-03-31T12:13:31.092Z,2.13
2023-03-31T12:16:04.635Z,2.75
2023-03-31T12:18:36.775Z,2.38
2023-03-31T12:21:05.319Z,1.83
2023-03-31T12:23:38.597Z,1.92
2023-03-31T12:26:11.509Z,2.60
2023-03-31T12:28:40.454Z,2.50
2023-03-31T12:31:13.180Z,1.98
2023-03-31T12:33:44.072Z,2.17
2023-03-31T12:36:27.551Z,2.00
2023-03-31T12:39:10.392Z,2.00
2023-03-31T12:41:46.389Z,1.75
2023-03-31T12:44:30.670Z,2.53
2023-03-31T12:47:14.918Z,1.52
2023-03-31T12:49:56.691Z,1.58
2023-03-31T12:52:34.630Z,1.23
2023-03-31T12:55:28.586Z,2.33
2023-03-31T12:58:37.479Z,1.63
2023-03-31T13:01:07.369Z,1.00
2023-03-31T13:03:42.768Z,1.70
2023-03-31T13:06:31.997Z,1.80
2023-03-31T13:08:59.544Z,1.30
2023-03-31T13:11:38.060Z,1.50
2023-03-31T13:14:07.153Z,1.15
2023-03-31T13:16:35.586Z,1.65
2023-03-31T13:19:02.401Z,1.80
2023-03-31T13:21:30.369Z,1.42
2023-03-31T13:24:00.704Z,2.20
2023-03-31T13:26:41.359Z,1.73
2023-03-31T13:29:19.809Z,1.90
2023-03-31T13:32:07.109Z,2.03
2023-03-31T13:34:39.804Z,1.92
2023-03-31T13:37:16.891Z,1.47
2023-03-31T13:39:56.495Z,1.10
2023-03-31T13:42:52.475Z,1.60
2023-03-31T13:45:45.466Z,1.70
2023-03-31T13:48:27.396Z,0.98
2023-03-31T13:51:11.218Z,1.13
2023-03-31T13:56:31.782Z,1.20
2023-03-31T13:59:18.409Z,1.35
2023-03-31T14:02:03.040Z,1.27
2023-03-31T14:04:50.968Z,0.70
2023-03-31T14:07:21.544Z,1.33
2023-03-31T14:09:53.047Z,1.23
2023-03-31T14:12:21.433Z,0.82
2023-03-31T14:14:48.027Z,1.15
2023-03-31T14:17:15.469Z,1.30
2023-03-31T14:20:03.351Z,1.02
2023-03-31T14:22:43.768Z,0.90
2023-03-31T14:25:19.704Z,0.80
2023-03-31T14:27:57.976Z,1.15
2023-03-31T14:30:35.104Z,0.90
2023-03-31T14:33:13.926Z,1.00
2023-03-31T14:35:42.920Z,0.70
2023-03-31T14:38:16.786Z,0.80
2023-03-31T14:40:48.060Z,0.60
2023-03-31T14:43:19.873Z,0.60
2023-03-31T14:45:46.379Z,0.70
2023-03-31T14:48:15.040Z,0.75
2023-03-31T14:50:43.357Z,0.88
2023-03-31T14:53:14.602Z,0.88
2023-03-31T14:55:57.329Z,0.70
2023-03-31T14:58:29.586Z,1.00
2023-03-31T15:00:56.203Z,0.70
2023-03-31T15:03:25.450Z,0.90
2023-03-31T15:05:56.778Z,1.38
2023-03-31T15:08:24.464Z,1.08
2023-03-31T15:10:58.874Z,1.02
2023-03-31T15:13:35.414Z,0.70
2023-03-31T15:16:20.614Z,1.00
2023-03-31T15:18:47.478Z,0.90
2023-03-31T15:21:20.487Z,0.85
2023-03-31T15:23:46.974Z,1.15
2023-03-31T15:26:16.646Z,0.90
2023-03-31T15:28:51.447Z,0.95
2023-03-31T15:31:18.251Z,0.70
2023-03-31T15:33:46.860Z,1.45
2023-03-31T15:36:14.685Z,0.75
2023-03-31T15:38:41.438Z,0.82
2023-03-31T15:41:12.513Z,0.65
2023-03-31T15:43:47.231Z,0.80
2023-03-31T15:46:19.811Z,1.52
2023-03-31T15:48:50.698Z,0.70
2023-03-31T15:51:20.095Z,0.47
2023-03-31T15:53:48.313Z,0.40
2023-03-31T15:56:28.453Z,0.70
2023-03-31T15:58:58.819Z,0.40
2023-03-31T16:01:30.547Z,0.60
2023-03-31T16:03:57.397Z,0.40
2023-03-31T16:06:41.964Z,0.77
2023-03-31T16:09:11.854Z,1.08
2023-03-31T16:11:41.688Z,0.40
2023-03-31T16:14:15.564Z,0.63
2023-03-31T16:16:47.546Z,0.75
2023-03-31T16:19:14.219Z,0.47
2023-03-31T16:21:43.818Z,0.80
2023-03-31T16:24:10.997Z,0.43
2023-03-31T16:26:38.100Z,0.60
2023-03-31T16:29:05.404Z,0.30
2023-03-31T16:31:36.389Z,0.47
2023-03-31T16:34:05.226Z,0.60
2023-03-31T16:36:31.827Z,0.32
2023-03-31T16:38:59.680Z,0.40
2023-03-31T16:41:28.466Z,0.40
2023-03-31T16:43:55.132Z,0.50
2023-03-31T16:46:22.152Z,0.60
2023-03-31T16:48:50.308Z,0.40
2023-03-31T16:51:16.851Z,0.38
2023-03-31T16:53:44.051Z,0.50
2023-03-31T16:56:11.075Z,0.40
2023-03-31T16:58:38.299Z,0.30
2023-03-31T17:01:06.188Z,0.60
2023-03-31T17:03:33.494Z,0.32
2023-03-31T17:06:06.681Z,0.40
2023-03-31T17:08:33.214Z,0.40
2023-03-31T17:11:01.725Z,0.38
2023-03-31T17:13:28.586Z,0.35
2023-03-31T17:16:01.491Z,0.30
2023-03-31T17:18:39.561Z,0.38
2023-03-31T17:21:09.356Z,0.45
2023-03-31T17:23:36.750Z,0.40
2023-03-31T17:26:04.375Z,0.57
2023-03-31T17:28:31.064Z,0.70
2023-03-31T17:30:57.851Z,0.60
2023-03-31T17:33:24.921Z,0.45
2023-03-31T17:35:55.653Z,0.77
2023-03-31T17:38:23.527Z,0.57
2023-03-31T17:40:50.018Z,0.60
2023-03-31T17:43:16.633Z,0.50
2023-03-31T17:45:43.146Z,0.50
2023-03-31T17:48:09.719Z,0.55
2023-03-31T17:50:36.543Z,0.82
2023-03-31T17:53:03.127Z,0.70
2023-03-31T17:55:30.962Z,1.08
2023-03-31T17:57:57.470Z,0.68
2023-03-31T18:00:24.036Z,0.60
2023-03-31T18:02:50.563Z,0.60
2023-03-31T18:05:18.497Z,0.70
2023-03-31T18:07:45.099Z,0.85
2023-03-31T18:10:11.751Z,1.10
2023-03-31T18:12:39.672Z,0.88
2023-03-31T18:15:07.471Z,0.90
2023-03-31T18:17:34.115Z,0.50
2023-03-31T18:20:00.694Z,0.70
2023-03-31T18:22:27.207Z,0.70
2023-03-31T18:24:53.709Z,0.70
2023-03-31T18:27:20.578Z,1.45
2023-03-31T18:29:48.710Z,0.60
2023-03-31T18:32:15.368Z,1.00
2023-03-31T18:34:41.988Z,0.68
2023-03-31T18:37:08.763Z,0.63
2023-03-31T18:39:35.472Z,0.60
2023-03-31T18:42:01.974Z,0.70
2023-03-31T18:44:28.533Z,0.60
2023-03-31T18:46:56.413Z,0.70
2023-03-31T18:49:23.116Z,0.63
2023-03-31T18:51:49.600Z,0.70
2023-03-31T18:54:16.105Z,0.63
2023-03-31T18:56:42.607Z,0.70
2023-03-31T18:59:09.128Z,0.40
2023-03-31T19:01:35.652Z,0.50
2023-03-31T19:04:03.521Z,0.40
2023-03-31T19:06:30.042Z,0.40
2023-03-31T19:08:57.057Z,1.08
2023-03-31T19:11:23.519Z,0.88
2023-03-31T19:13:50.156Z,0.70
2023-03-31T19:16:16.659Z,0.52
2023-03-31T19:18:43.162Z,0.60
2023-03-31T19:21:11.177Z,0.80
2023-03-31T19:23:37.843Z,0.80
2023-03-31T19:26:04.674Z,0.77
2023-03-31T19:28:31.623Z,0.60
2023-03-31T19:30:59.266Z,0.70
2023-03-31T19:33:26.372Z,1.30
2023-03-31T19:35:53.057Z,1.30
2023-03-31T19:38:20.948Z,0.82
2023-03-31T19:40:48.252Z,1.00
2023-03-31T19:43:17.502Z,1.02
2023-03-31T19:45:44.055Z,0.73
2023-03-31T19:48:10.590Z,0.95
2023-03-31T19:50:37.083Z,0.85
2023-03-31T19:53:03.622Z,1.20
2023-03-31T19:55:31.639Z,0.80
2023-03-31T19:57:58.165Z,1.25
2023-03-31T20:00:24.858Z,0.82
2023-03-31T20:02:51.620Z,1.10
2023-03-31T20:05:18.285Z,1.50
2023-03-31T20:07:44.834Z,1.30
2023-03-31T20:10:11.375Z,0.85
2023-03-31T20:12:39.358Z,0.82
2023-03-31T20:15:06.936Z,1.17
2023-03-31T20:17:33.461Z,0.80
2023-03-31T20:20:00.241Z,1.13
2023-03-31T20:22:26.745Z,1.08
2023-03-31T20:24:53.243Z,1.60
2023-03-31T20:27:19.747Z,1.55
2023-03-31T20:29:47.582Z,1.42
2023-03-31T20:32:14.091Z,1.30
2023-03-31T20:34:40.708Z,1.10
2023-03-31T20:37:07.247Z,1.30
2023-03-31T20:39:33.940Z,1.20
2023-03-31T20:42:00.417Z,1.15
2023-03-31T20:44:27.008Z,1.58
2023-03-31T20:46:54.844Z,1.60
2023-03-31T20:49:21.345Z,1.75
2023-03-31T20:51:48.424Z,1.50
2023-03-31T20:54:15.075Z,1.70
2023-03-31T20:56:41.972Z,1.30
2023-03-31T20:59:10.924Z,1.88
2023-03-31T21:01:37.995Z,1.17
2023-03-31T21:04:07.544Z,1.58
2023-03-31T21:06:38.194Z,1.52
2023-03-31T21:09:05.308Z,1.27
2023-03-31T21:11:31.864Z,1.30
2023-03-31T21:13:58.624Z,1.30
2023-03-31T21:16:25.221Z,1.38
2023-03-31T21:18:51.958Z,0.98
2023-03-31T21:21:19.950Z,1.30
2023-03-31T21:23:46.541Z,1.77
2023-03-31T21:26:15.490Z,1.10
2023-03-31T21:28:42.936Z,1.48
2023-03-31T21:31:12.063Z,1.20
2023-03-31T21:33:40.195Z,1.27
2023-03-31T21:36:08.619Z,1.30
2023-03-31T21:38:36.919Z,1.20
2023-03-31T21:41:06.920Z,1.60
2023-03-31T21:43:33.894Z,1.23
2023-03-31T21:46:00.520Z,0.98
2023-03-31T21:48:27.084Z,1.42
2023-03-31T21:50:54.687Z,1.17
2023-03-31T21:53:22.111Z,1.00
2023-03-31T21:55:50.075Z,1.17
2023-03-31T21:58:16.780Z,1.00
2023-03-31T22:00:43.462Z,1.25
2023-03-31T22:03:25.653Z,1.52
2023-03-31T22:05:53.359Z,1.10
2023-03-31T22:08:19.890Z,0.98
2023-03-31T22:10:50.321Z,1.33
2023-03-31T22:13:16.861Z,1.13
2023-03-31T22:15:44.277Z,0.90
2023-03-31T22:18:11.173Z,0.60
2023-03-31T22:20:38.146Z,1.33
2023-03-31T22:23:04.848Z,1.15
2023-03-31T22:25:31.643Z,1.17
2023-03-31T22:28:00.847Z,1.15
2023-03-31T22:30:27.731Z,1.45
2023-03-31T22:32:54.317Z,0.98
2023-03-31T22:35:20.918Z,0.52
2023-03-31T22:37:47.502Z,0.98
2023-03-31T22:40:14.037Z,0.90
2023-03-31T22:42:40.559Z,0.47
2023-03-31T22:45:09.362Z,1.55
2023-03-31T22:47:35.997Z,1.02
2023-03-31T22:50:02.663Z,1.10
2023-03-31T22:52:29.340Z,0.90
2023-03-31T22:54:55.829Z,0.68
2023-03-31T22:57:22.602Z,1.13
2023-03-31T22:59:49.173Z,0.85
2023-03-31T23:02:17.035Z,0.90
2023-03-31T23:04:43.496Z,1.05
2023-03-31T23:07:10.165Z,0.90
2023-03-31T23:09:36.673Z,0.60
2023-03-31T23:12:03.405Z,0.60
2023-03-31T23:14:29.926Z,0.70
2023-03-31T23:16:56.475Z,0.50
2023-03-31T23:19:24.443Z,0.80
2023-03-31T23:21:51.002Z,1.15
2023-03-31T23:24:17.505Z,0.93
2023-03-31T23:26:44.027Z,0.70
2023-03-31T23:29:10.514Z,0.80
2023-03-31T23:31:37.021Z,1.00
2023-03-31T23:34:03.527Z,0.80
2023-03-31T23:36:31.381Z,0.80
2023-03-31T23:38:57.990Z,0.75
2023-03-31T23:41:24.969Z,0.95
2023-03-31T23:43:51.939Z,0.50
2023-03-31T23:46:18.601Z,0.52
2023-03-31T23:48:45.362Z,0.80
2023-03-31T23:51:12.045Z,0.65
2023-03-31T23:53:40.388Z,0.95
2023-03-31T23:56:09.039Z,0.80
2023-03-31T23:58:36.271Z,0.70
